< < Back
Terminal Aerodrome Forecast


Current Version              Previous Versions:   1  2  3  4  5  6  7  8  9  

Terminal Aerodrome Forecast

170
FTUS44 KBMX 021100 RRA
TAFMGM
TAF
KMGM 021147Z 0212/0312 00000KT P6SM SKC
     FM021400 17006KT P6SM SCT040
     FM030900 19004KT P6SM OVC015=



Latest METAR

868
SAUS80 KWBC 021700 RRA
MTRMGM
METAR KMGM 021653Z 00000KT 10SM FEW036 SCT045 BKN049 29/19 A3005 RMK AO2
SLP173 T02890194


USA.gov is the U.S. government's official web portal to all federal, state and local government web resources and services.